Time;durP1;ratioP1;P1;durP2;ratioP2;P2;SDS_P1;SDS_P2;PMS_P1;PMS_P2;Temp;Humidity;BMP_temperature;BMP_pressure;BME280_temperature;BME280_humidity;BME280_pressure;Samples;Min_cycle;Max_cycle;Signal;HPM_P1;HPM_P2
2023/03/25 00:02:00;;;;;;;;;;;;;;;9.17;100.00;100084.25;10458493;28;19951;-63
2023/03/25 00:07:02;;;;;;;;;;;;;;;8.96;100.00;100093.44;10443197;28;20023;-63
2023/03/25 00:12:04;;;;;;;;;;;;;;;9.05;100.00;100077.22;10458800;28;20287;-63
2023/03/25 00:17:07;;;;;;;;;;;;;;;9.03;100.00;100081.69;10459477;28;19932;-64
2023/03/25 00:22:09;;;;;;;;;;;;;;;9.27;100.00;100089.75;10460234;28;19925;-64
2023/03/25 00:27:13;;;;;;;;;;;;;;;9.17;100.00;100086.88;10458624;28;19936;-65
2023/03/25 00:32:16;;;;;;;;;;;;;;;9.08;100.00;100083.06;10458407;28;20359;-65
2023/03/25 00:37:20;;;;;;;;;;;;;;;9.04;100.00;100083.34;10459540;28;19932;-65
2023/03/25 00:42:24;;;;;;;;;;;;;;;9.09;100.00;100083.91;10459399;28;19925;-64
2023/03/25 00:47:27;;;;;;;;;;;;;;;9.08;100.00;100077.84;10457706;28;19929;-64
2023/03/25 00:52:29;;;;;;;;;;;;;;;9.15;100.00;100085.31;10458988;28;19924;-64
2023/03/25 00:57:32;;;;;;;;;;;;;;;9.12;100.00;100075.88;10458791;28;19925;-65
2023/03/25 01:02:34;;;;;;;;;;;;;;;9.07;99.30;100080.56;10438240;28;19925;-65
2023/03/25 01:07:37;;;;;;;;;;;;;;;9.22;98.66;100069.13;10456839;28;20035;-65
2023/03/25 01:12:39;;;;;;;;;;;;;;;9.23;97.46;100076.06;10440645;28;19925;-65
2023/03/25 01:17:42;;;;;;;;;;;;;;;9.19;96.74;100078.94;10457483;28;19930;-65
2023/03/25 01:22:44;;;;;;;;;;;;;;;9.11;96.30;100072.44;10456880;28;19924;-65
2023/03/25 01:27:46;;;;;;;;;;;;;;;9.19;94.38;100068.50;10438543;28;19971;-64
2023/03/25 01:32:49;;;;;;;;;;;;;;;9.23;94.09;100080.41;10455863;28;19932;-64
2023/03/25 01:37:53;;;;;;;;;;;;;;;8.99;95.01;100083.63;10457688;28;19982;-64
2023/03/25 01:42:55;;;;;;;;;;;;;;;9.11;94.93;100075.06;10457440;28;19925;-65
2023/03/25 01:48:02;;;;;;;;;;;;;;;9.03;94.90;100068.63;10455073;28;20260;-64
2023/03/25 01:53:29;;;;;;;;;;;;;;;9.10;95.49;100065.53;10443414;28;19921;-64
2023/03/25 01:58:31;;;;;;;;;;;;;;;9.15;95.48;100074.88;10436831;28;20329;-65
2023/03/25 02:03:35;;;;;;;;;;;;;;;9.02;96.76;100061.72;10439546;28;19925;-64
2023/03/25 02:08:40;;;;;;;;;;;;;;;8.95;97.50;100060.44;10439659;28;19931;-64
2023/03/25 02:13:42;;;;;;;;;;;;;;;9.05;96.25;100067.59;10437318;28;19979;-65
2023/03/25 02:18:47;;;;;;;;;;;;;;;8.86;97.94;100072.28;10456645;28;19925;-64
2023/03/25 02:24:08;;;;;;;;;;;;;;;8.77;100.00;100067.63;10456052;28;20296;-64
2023/03/25 02:29:22;;;;;;;;;;;;;;;8.72;100.00;100057.47;10455181;28;19929;-65
2023/03/25 02:34:28;;;;;;;;;;;;;;;8.67;100.00;100051.69;10438227;28;19932;-65
2023/03/25 02:39:31;;;;;;;;;;;;;;;8.56;100.00;100036.69;10455647;28;20364;-65
2023/03/25 02:44:48;;;;;;;;;;;;;;;8.49;100.00;100059.72;10445695;28;19925;-64
2023/03/25 02:49:55;;;;;;;;;;;;;;;8.65;100.00;100041.34;10444037;28;20011;-64
2023/03/25 02:55:00;;;;;;;;;;;;;;;8.57;100.00;100047.97;10444339;28;19978;-64
2023/03/25 03:00:09;;;;;;;;;;;;;;;8.57;100.00;100046.19;10442797;28;19968;-64
2023/03/25 03:05:26;;;;;;;;;;;;;;;8.81;100.00;100043.88;10429055;28;19929;-65
2023/03/25 03:10:31;;;;;;;;;;;;;;;8.74;100.00;100051.22;10460761;28;19971;-65
2023/03/25 03:15:42;;;;;;;;;;;;;;;8.56;100.00;100036.69;10445211;28;19974;-64
2023/03/25 03:20:48;;;;;;;;;;;;;;;8.37;100.00;100050.84;10461873;28;20429;-64
2023/03/25 03:25:54;;;;;;;;;;;;;;;8.41;100.00;100051.47;10460164;28;19929;-64
2023/03/25 03:31:10;;;;;;;;;;;;;;;8.61;100.00;100059.88;10461285;28;19930;-65
2023/03/25 03:36:14;;;;;;;;;;;;;;;8.56;100.00;100052.34;10462036;28;19931;-64
2023/03/25 03:41:20;;;;;;;;;;;;;;;8.51;100.00;100044.81;10444227;28;19925;-65
2023/03/25 03:46:26;;;;;;;;;;;;;;;8.38;100.00;100054.28;10441883;28;19929;-64
2023/03/25 03:51:35;;;;;;;;;;;;;;;8.46;100.00;100053.84;10442199;28;20368;-64
2023/03/25 03:57:01;;;;;;;;;;;;;;;8.58;100.00;100049.66;10442175;28;19951;-64
2023/03/25 04:02:05;;;;;;;;;;;;;;;8.57;100.00;100056.63;10447668;28;19931;-64
2023/03/25 04:07:18;;;;;;;;;;;;;;;8.29;100.00;100052.22;10442110;28;19931;-64
2023/03/25 04:12:25;;;;;;;;;;;;;;;8.30;100.00;100054.72;10441942;28;19959;-64
2023/03/25 04:17:31;;;;;;;;;;;;;;;8.41;100.00;100053.25;10441682;28;20314;-64
2023/03/25 04:22:36;;;;;;;;;;;;;;;8.29;100.00;100044.41;10459605;28;19925;-64
2023/03/25 04:27:38;;;;;;;;;;;;;;;8.12;100.00;100043.63;10458219;28;19925;-64
2023/03/25 04:32:41;;;;;;;;;;;;;;;8.24;100.00;100046.41;10458147;28;19929;-64
2023/03/25 04:37:47;;;;;;;;;;;;;;;8.30;100.00;100035.63;10459565;28;19968;-64
2023/03/25 04:42:52;;;;;;;;;;;;;;;8.47;100.00;100034.63;10442423;28;19986;-64
2023/03/25 04:47:54;;;;;;;;;;;;;;;8.50;100.00;100043.13;10456760;28;20386;-64
2023/03/25 04:52:57;;;;;;;;;;;;;;;8.35;100.00;100029.22;10457461;28;19924;-64
2023/03/25 04:57:59;;;;;;;;;;;;;;;8.36;100.00;100040.50;10458771;28;19960;-64
2023/03/25 05:03:01;;;;;;;;;;;;;;;8.42;100.00;100031.44;10457894;28;19935;-64
2023/03/25 05:08:03;;;;;;;;;;;;;;;8.35;100.00;100028.38;10456284;28;19924;-64
2023/03/25 05:13:06;;;;;;;;;;;;;;;8.48;100.00;100029.34;10457242;28;19925;-64
2023/03/25 05:18:09;;;;;;;;;;;;;;;8.47;100.00;100039.84;10438472;28;19925;-64
2023/03/25 05:23:14;;;;;;;;;;;;;;;8.66;100.00;100040.44;10424460;28;19929;-64
2023/03/25 05:28:17;;;;;;;;;;;;;;;8.50;100.00;100031.84;10440661;28;19925;-65
2023/03/25 05:33:19;;;;;;;;;;;;;;;8.45;100.00;100036.50;10456330;28;19970;-65
2023/03/25 05:38:21;;;;;;;;;;;;;;;8.29;100.00;100071.31;10457592;28;19928;-64
2023/03/25 05:43:24;;;;;;;;;;;;;;;8.48;100.00;100046.75;10437331;28;20322;-64
2023/03/25 05:48:26;;;;;;;;;;;;;;;8.29;100.00;100076.53;10455410;28;19951;-64
2023/03/25 05:53:29;;;;;;;;;;;;;;;8.33;100.00;100072.78;10439613;28;19925;-64
2023/03/25 05:58:32;;;;;;;;;;;;;;;8.32;100.00;100065.06;10437658;28;19929;-64
2023/03/25 06:03:34;;;;;;;;;;;;;;;8.42;100.00;100067.97;10456522;28;19925;-64
2023/03/25 06:08:37;;;;;;;;;;;;;;;8.26;100.00;100075.88;10438153;28;19951;-64
2023/03/25 06:13:40;;;;;;;;;;;;;;;8.24;100.00;100075.09;10456967;28;19940;-64
2023/03/25 06:18:42;;;;;;;;;;;;;;;8.21;100.00;100086.56;10445290;28;19935;-64
2023/03/25 06:23:44;;;;;;;;;;;;;;;8.36;100.00;100080.44;10444923;28;20375;-64
2023/03/25 06:28:47;;;;;;;;;;;;;;;8.26;100.00;100068.88;10462912;28;19994;-64
2023/03/25 06:33:50;;;;;;;;;;;;;;;8.47;100.00;100072.03;10446206;28;20387;-65
2023/03/25 06:38:52;;;;;;;;;;;;;;;8.51;100.00;100081.31;10464270;28;19935;-65
2023/03/25 06:43:54;;;;;;;;;;;;;;;8.51;100.00;100085.72;10462117;28;19968;-64
2023/03/25 06:48:56;;;;;;;;;;;;;;;8.35;100.00;100094.44;10462526;28;19924;-64
2023/03/25 06:53:59;;;;;;;;;;;;;;;8.41;100.00;100095.00;10463058;28;19929;-65
2023/03/25 06:59:01;;;;;;;;;;;;;;;8.65;100.00;100087.50;10459085;28;20261;-64
2023/03/25 07:04:03;;;;;;;;;;;;;;;9.07;97.61;100094.44;10445762;28;19932;-64
2023/03/25 07:09:05;;;;;;;;;;;;;;;9.35;95.18;100094.50;10443910;28;19925;-65
2023/03/25 07:14:08;;;;;;;;;;;;;;;9.40;93.47;100090.66;10440321;28;19925;-64
2023/03/25 07:19:10;;;;;;;;;;;;;;;9.11;93.53;100114.22;10460429;28;19924;-65
2023/03/25 07:24:12;;;;;;;;;;;;;;;9.06;93.67;100086.69;10461460;28;19932;-65
2023/03/25 07:29:15;;;;;;;;;;;;;;;8.97;94.89;100095.13;10459222;28;19932;-64
2023/03/25 07:34:17;;;;;;;;;;;;;;;9.22;95.44;100083.97;10458883;28;19932;-65
2023/03/25 07:39:20;;;;;;;;;;;;;;;8.63;97.42;100120.66;10461912;28;19928;-64
2023/03/25 07:44:22;;;;;;;;;;;;;;;8.91;100.00;100115.44;10457110;28;20338;-65
2023/03/25 07:49:25;;;;;;;;;;;;;;;8.43;100.00;100120.06;10461036;28;19932;-64
2023/03/25 07:54:27;;;;;;;;;;;;;;;8.55;100.00;100131.56;10458635;28;19925;-64
2023/03/25 07:59:29;;;;;;;;;;;;;;;8.16;100.00;100128.56;10443096;28;19925;-65
2023/03/25 08:04:31;;;;;;;;;;;;;;;8.42;100.00;100134.00;10460943;28;19978;-65
2023/03/25 08:09:34;;;;;;;;;;;;;;;8.33;100.00;100134.56;10458482;28;19925;-64
2023/03/25 08:14:36;;;;;;;;;;;;;;;8.56;100.00;100141.06;10442830;28;19929;-64
2023/03/25 08:19:38;;;;;;;;;;;;;;;8.54;100.00;100142.94;10459779;28;19925;-64
2023/03/25 08:24:40;;;;;;;;;;;;;;;8.71;100.00;100145.38;10442484;28;19924;-65
2023/03/25 08:29:53;;;;;;;;;;;;;;;8.56;100.00;100148.91;10442740;28;20331;-64
2023/03/25 08:34:55;;;;;;;;;;;;;;;8.58;100.00;100147.03;10459717;28;19929;-64
2023/03/25 08:39:57;;;;;;;;;;;;;;;8.36;100.00;100143.03;10435805;28;19979;-64
2023/03/25 08:44:59;;;;;;;;;;;;;;;8.70;100.00;100167.16;10458051;28;20454;-64
2023/03/25 08:50:02;;;;;;;;;;;;;;;8.74;100.00;100154.78;10459021;28;19932;-65
2023/03/25 08:55:06;;;;;;;;;;;;;;;8.90;100.00;100157.31;10457584;28;19932;-65
2023/03/25 09:00:13;;;;;;;;;;;;;;;9.24;100.00;100160.47;10456845;28;20007;-64
2023/03/25 09:05:15;;;;;;;;;;;;;;;10.01;100.00;100151.19;10455430;28;19925;-65
2023/03/25 09:10:17;;;;;;;;;;;;;;;10.03;99.53;100167.63;10412619;28;20380;-65
2023/03/25 09:15:20;;;;;;;;;;;;;;;9.86;100.00;100134.72;10414914;28;19929;-65
2023/03/25 09:20:22;;;;;;;;;;;;;;;9.86;100.00;100150.41;10402990;28;19929;-65
2023/03/25 09:25:24;;;;;;;;;;;;;;;9.93;98.44;100153.47;10416548;28;19926;-65
2023/03/25 09:30:26;;;;;;;;;;;;;;;10.22;97.75;100143.72;10398675;28;19929;-63
2023/03/25 09:35:29;;;;;;;;;;;;;;;9.65;98.82;100147.41;10429618;28;19948;-63
2023/03/25 09:40:31;;;;;;;;;;;;;;;10.10;99.45;100147.13;10415127;28;20483;-63
2023/03/25 09:45:38;;;;;;;;;;;;;;;10.86;100.00;100163.06;10440281;28;19932;-63
2023/03/25 09:50:40;;;;;;;;;;;;;;;10.01;100.00;100166.88;10401725;28;19932;-63
2023/03/25 09:55:43;;;;;;;;;;;;;;;10.21;100.00;100180.44;10414367;28;19925;-64
2023/03/25 10:00:45;;;;;;;;;;;;;;;10.13;100.00;100161.81;10416209;28;19926;-64
2023/03/25 10:05:48;;;;;;;;;;;;;;;10.19;100.00;100170.09;10407688;28;20291;-63
2023/03/25 10:11:02;;;;;;;;;;;;;;;9.90;100.00;100173.75;10415764;28;19929;-64
2023/03/25 10:16:17;;;;;;;;;;;;;;;10.16;100.00;100178.13;10446868;22;19924;-63
2023/03/25 10:21:24;;;;;;;;;;;;;;;9.73;100.00;100183.50;10457130;28;20447;-62
2023/03/25 10:26:26;;;;;;;;;;;;;;;10.71;97.84;100184.13;10488705;28;19925;-63
2023/03/25 10:31:30;;;;;;;;;;;;;;;11.56;89.01;100183.50;10456658;28;19974;-63
2023/03/25 10:36:34;;;;;;;;;;;;;;;11.81;88.13;100171.25;10455326;28;19948;-63
2023/03/25 10:41:37;;;;;;;;;;;;;;;12.50;88.23;100173.22;10454500;28;19925;-63
2023/03/25 10:46:51;;;;;;;;;;;;;;;11.88;90.12;100162.84;10454404;28;19974;-63
2023/03/25 10:51:56;;;;;;;;;;;;;;;11.59;88.69;100178.03;10454307;28;20277;-63
2023/03/25 10:56:58;;;;;;;;;;;;;;;11.46;91.24;100172.81;10454989;28;19925;-63
2023/03/25 11:02:02;;;;;;;;;;;;;;;12.01;85.48;100175.06;10454757;28;19935;-63
2023/03/25 11:07:08;;;;;;;;;;;;;;;13.00;80.99;100187.72;10462750;28;19929;-63
2023/03/25 11:12:10;;;;;;;;;;;;;;;12.22;82.25;100172.63;10461791;28;19924;-63
2023/03/25 11:17:15;;;;;;;;;;;;;;;11.68;83.39;100182.63;10461024;28;19929;-63
2023/03/25 11:22:22;;;;;;;;;;;;;;;12.18;83.75;100186.94;10461564;28;19925;-63
2023/03/25 11:27:25;;;;;;;;;;;;;;;11.86;82.63;100180.44;10461903;28;19974;-63
2023/03/25 11:32:35;;;;;;;;;;;;;;;12.35;79.81;100209.31;10462297;28;19924;-64
2023/03/25 11:37:42;;;;;;;;;;;;;;;11.80;83.31;100186.16;10460422;28;19924;-62
2023/03/25 11:42:48;;;;;;;;;;;;;;;11.55;85.40;100202.81;10460160;28;20394;-62
2023/03/25 11:47:51;;;;;;;;;;;;;;;12.67;81.02;100177.19;10460462;28;19925;-62
2023/03/25 11:52:59;;;;;;;;;;;;;;;11.33;86.42;100220.03;10460982;28;19929;-62
2023/03/25 11:58:03;;;;;;;;;;;;;;;10.19;97.38;100234.66;10461337;28;19970;-62
2023/03/25 12:03:11;;;;;;;;;;;;;;;11.50;100.00;100215.41;10461156;28;19932;-62
2023/03/25 12:08:15;;;;;;;;;;;;;;;13.54;85.17;100212.47;10461152;28;19955;-62
2023/03/25 12:13:20;;;;;;;;;;;;;;;15.32;77.43;100196.06;10491458;28;19978;-62
2023/03/25 12:18:45;;;;;;;;;;;;;;;12.71;76.52;100179.47;10459832;28;20375;-62
2023/03/25 12:24:02;;;;;;;;;;;;;;;12.56;77.24;100189.34;10460372;28;19929;-62
2023/03/25 12:29:07;;;;;;;;;;;;;;;13.52;72.28;100158.34;10460238;28;19979;-62
2023/03/25 12:34:28;;;;;;;;;;;;;;;14.80;68.20;100161.03;10459263;28;19929;-62
2023/03/25 12:39:37;;;;;;;;;;;;;;;14.33;68.06;100168.47;10459653;28;19975;-62
2023/03/25 12:44:47;;;;;;;;;;;;;;;13.51;66.67;100159.28;10459604;28;19924;-62
2023/03/25 12:50:08;;;;;;;;;;;;;;;13.32;71.08;100152.88;10459291;28;19924;-62
2023/03/25 12:55:13;;;;;;;;;;;;;;;12.68;72.04;100158.69;10459059;28;19925;-62
2023/03/25 13:00:34;;;;;;;;;;;;;;;13.53;73.67;100150.34;10458190;28;20372;-61
2023/03/25 13:05:39;;;;;;;;;;;;;;;12.31;77.56;100160.63;10458144;28;19925;-62
2023/03/25 13:10:42;;;;;;;;;;;;;;;11.84;86.50;100208.56;10458518;28;19986;-61
2023/03/25 13:15:45;;;;;;;;;;;;;;;11.98;82.25;100185.78;10455492;28;19933;-61
2023/03/25 13:21:05;;;;;;;;;;;;;;;12.61;79.59;100200.34;10455912;28;20055;-62
2023/03/25 13:26:18;;;;;;;;;;;;;;;11.03;86.16;100222.13;10456373;28;19925;-61
2023/03/25 13:31:29;;;;;;;;;;;;;;;11.20;83.25;100197.44;10490102;28;19928;-61
2023/03/25 13:36:34;;;;;;;;;;;;;;;14.36;74.67;100191.91;10456020;28;19932;-61
2023/03/25 13:41:40;;;;;;;;;;;;;;;14.81;68.36;100187.25;10487640;28;19925;-61
2023/03/25 13:47:05;;;;;;;;;;;;;;;15.12;72.04;100176.72;10488214;28;20290;-61
2023/03/25 13:52:07;;;;;;;;;;;;;;;14.04;72.90;100175.16;10449894;28;19931;-62
2023/03/25 13:57:28;;;;;;;;;;;;;;;13.42;71.62;100188.97;10456968;28;19925;-61
2023/03/25 14:02:30;;;;;;;;;;;;;;;13.31;72.21;100193.22;10457772;28;20007;-61
2023/03/25 14:07:36;;;;;;;;;;;;;;;13.65;72.13;100192.38;10456552;28;20299;-61
2023/03/25 14:13:05;;;;;;;;;;;;;;;15.42;64.86;100217.22;10456946;28;19925;-62
2023/03/25 14:18:12;;;;;;;;;;;;;;;14.70;65.30;100203.13;10452413;28;19929;-62
2023/03/25 14:23:17;;;;;;;;;;;;;;;13.17;68.53;100210.06;10440857;28;19928;-62
2023/03/25 14:28:20;;;;;;;;;;;;;;;13.30;64.85;100215.22;10456706;28;19932;-62
2023/03/25 14:33:23;;;;;;;;;;;;;;;13.94;65.39;100204.03;10455595;28;20260;-61
2023/03/25 14:38:45;;;;;;;;;;;;;;;14.54;66.50;100206.19;10459714;28;19925;-62
2023/03/25 14:43:53;;;;;;;;;;;;;;;14.19;63.36;100209.06;10459273;28;19925;-62
2023/03/25 14:49:04;;;;;;;;;;;;;;;13.50;64.80;100239.13;10465071;28;20272;-62
2023/03/25 14:54:12;;;;;;;;;;;;;;;14.29;64.78;100220.56;10463928;28;19930;-62
2023/03/25 14:59:16;;;;;;;;;;;;;;;14.45;62.27;100226.22;10453019;28;20440;-62
2023/03/25 15:04:23;;;;;;;;;;;;;;;13.44;64.53;100245.72;10495547;28;19975;-62
2023/03/25 15:09:27;;;;;;;;;;;;;;;12.67;65.99;100233.16;10494082;28;20379;-62
2023/03/25 15:14:30;;;;;;;;;;;;;;;12.62;67.12;100248.44;10493793;28;19971;-62
2023/03/25 15:19:53;;;;;;;;;;;;;;;12.54;70.05;100237.66;10462837;28;19974;-62
2023/03/25 15:24:58;;;;;;;;;;;;;;;14.36;66.02;100241.97;10431276;28;19979;-62
2023/03/25 15:30:02;;;;;;;;;;;;;;;15.16;62.00;100230.00;10462564;28;19924;-62
2023/03/25 15:35:22;;;;;;;;;;;;;;;13.47;67.03;100253.38;10460979;28;20386;-62
2023/03/25 15:40:25;;;;;;;;;;;;;;;13.75;65.68;100253.81;10461992;28;19928;-62
2023/03/25 15:45:34;;;;;;;;;;;;;;;13.52;62.71;100259.09;10461378;28;20352;-62
2023/03/25 15:50:55;;;;;;;;;;;;;;;13.57;62.73;100254.31;10460607;28;19924;-62
2023/03/25 15:56:01;;;;;;;;;;;;;;;13.15;67.08;100282.13;10461459;28;19979;-62
2023/03/25 16:01:37;;;;;;;;;;;;;;;12.85;68.00;100277.41;10492674;28;20364;-62
2023/03/25 16:06:41;;;;;;;;;;;;;;;13.09;66.55;100301.00;10427920;28;19970;-62
2023/03/25 16:11:43;;;;;;;;;;;;;;;12.87;68.67;100286.00;10491518;28;19925;-62
2023/03/25 16:16:53;;;;;;;;;;;;;;;12.31;68.49;100271.72;10457101;28;20395;-62
2023/03/25 16:21:55;;;;;;;;;;;;;;;12.17;69.68;100292.84;10492976;28;19983;-62
2023/03/25 16:27:07;;;;;;;;;;;;;;;12.11;70.67;100309.06;10490127;28;20302;-62
2023/03/25 16:32:16;;;;;;;;;;;;;;;12.14;70.31;100293.94;10459312;28;19947;-62
2023/03/25 16:37:19;;;;;;;;;;;;;;;12.06;70.26;100298.88;10491327;28;19928;-62
2023/03/25 16:42:26;;;;;;;;;;;;;;;11.69;73.57;100356.53;10474903;28;19978;-62
2023/03/25 16:47:30;;;;;;;;;;;;;;;10.12;82.10;100348.44;10490773;28;20380;-61
2023/03/25 16:52:32;;;;;;;;;;;;;;;9.76;98.10;100336.72;10458508;28;20043;-61
2023/03/25 16:57:36;;;;;;;;;;;;;;;9.66;99.63;100326.00;10492441;28;20007;-61
2023/03/25 17:02:42;;;;;;;;;;;;;;;9.81;100.00;100339.91;10457477;28;20384;-62
2023/03/25 17:07:49;;;;;;;;;;;;;;;10.13;100.00;100334.44;10458705;28;19928;-61
2023/03/25 17:12:53;;;;;;;;;;;;;;;10.00;100.00;100352.66;10458614;28;19971;-62
2023/03/25 17:17:59;;;;;;;;;;;;;;;10.10;99.65;100350.31;10489498;28;20319;-62
2023/03/25 17:23:06;;;;;;;;;;;;;;;10.17;98.18;100378.63;10473994;28;20035;-62
2023/03/25 17:28:23;;;;;;;;;;;;;;;10.09;97.59;100383.50;10488671;28;19990;-62
2023/03/25 17:33:38;;;;;;;;;;;;;;;10.16;95.35;100374.31;10490020;28;19963;-61
2023/03/25 17:38:43;;;;;;;;;;;;;;;10.02;95.94;100380.41;10488381;28;19928;-61
2023/03/25 17:43:50;;;;;;;;;;;;;;;10.11;94.89;100375.56;10499617;28;19936;-61
2023/03/25 17:48:54;;;;;;;;;;;;;;;10.08;97.33;100378.34;10498904;28;19925;-61
2023/03/25 17:53:56;;;;;;;;;;;;;;;10.08;98.16;100391.44;10471780;28;19971;-61
2023/03/25 17:59:03;;;;;;;;;;;;;;;10.23;98.48;100409.63;10461286;28;19933;-61
2023/03/25 18:04:05;;;;;;;;;;;;;;;10.20;99.87;100412.47;10467999;28;19970;-61
2023/03/25 18:09:17;;;;;;;;;;;;;;;10.17;99.27;100417.88;10491934;28;19951;-62
2023/03/25 18:14:20;;;;;;;;;;;;;;;10.25;96.89;100432.25;10503527;28;19962;-62
2023/03/25 18:19:23;;;;;;;;;;;;;;;10.25;95.43;100433.09;10506715;28;19924;-62
2023/03/25 18:24:25;;;;;;;;;;;;;;;10.23;95.63;100443.63;10506584;28;19928;-62
2023/03/25 18:29:28;;;;;;;;;;;;;;;10.08;97.06;100449.81;10463967;28;19925;-62
2023/03/25 18:34:30;;;;;;;;;;;;;;;9.85;96.88;100457.28;10463966;28;19925;-63
2023/03/25 18:39:32;;;;;;;;;;;;;;;9.96;97.51;100461.03;10464456;28;19929;-62
2023/03/25 18:44:34;;;;;;;;;;;;;;;9.94;98.45;100465.53;10473803;28;19925;-62
2023/03/25 18:49:37;;;;;;;;;;;;;;;10.00;98.54;100459.91;10462235;28;20338;-62
2023/03/25 18:54:40;;;;;;;;;;;;;;;10.06;95.55;100470.00;10463315;28;20379;-62
2023/03/25 18:59:42;;;;;;;;;;;;;;;9.97;96.34;100463.56;10463658;28;19924;-62
2023/03/25 19:04:44;;;;;;;;;;;;;;;10.05;97.14;100484.00;10467003;28;19924;-62
2023/03/25 19:10:01;;;;;;;;;;;;;;;10.15;97.81;100485.13;10466048;28;19924;-62
2023/03/25 19:15:03;;;;;;;;;;;;;;;9.97;99.70;100487.09;10465950;28;19924;-62
2023/03/25 19:20:06;;;;;;;;;;;;;;;9.99;99.86;100490.44;10462804;28;19937;-62
2023/03/25 19:25:08;;;;;;;;;;;;;;;10.15;99.01;100495.59;10460328;28;19925;-62
2023/03/25 19:30:12;;;;;;;;;;;;;;;9.91;100.00;100504.91;10493572;28;19933;-62
2023/03/25 19:35:15;;;;;;;;;;;;;;;10.17;97.76;100511.19;10464292;28;19925;-62
2023/03/25 19:40:21;;;;;;;;;;;;;;;9.93;100.00;100510.91;10489421;28;19929;-62
2023/03/25 19:45:24;;;;;;;;;;;;;;;9.79;100.00;100512.56;10476555;28;20397;-62
2023/03/25 19:50:28;;;;;;;;;;;;;;;9.70;100.00;100496.56;10461781;28;19928;-62
2023/03/25 19:55:30;;;;;;;;;;;;;;;9.53;100.00;100500.16;10460956;28;20330;-62
2023/03/25 20:00:33;;;;;;;;;;;;;;;9.63;100.00;100490.84;10460821;28;19925;-62
2023/03/25 20:05:35;;;;;;;;;;;;;;;9.45;100.00;100495.38;10458831;28;20368;-62
2023/03/25 20:10:38;;;;;;;;;;;;;;;9.22;100.00;100494.91;10460080;28;19940;-62
2023/03/25 20:15:40;;;;;;;;;;;;;;;9.25;100.00;100499.13;10490566;28;19931;-62
2023/03/25 20:20:42;;;;;;;;;;;;;;;9.16;100.00;100503.06;10460553;28;19932;-62
2023/03/25 20:25:46;;;;;;;;;;;;;;;9.04;100.00;100514.22;10493448;28;19925;-62
2023/03/25 20:30:48;;;;;;;;;;;;;;;9.08;100.00;100515.75;10459541;28;19974;-62
2023/03/25 20:35:50;;;;;;;;;;;;;;;9.04;100.00;100519.44;10457991;28;19925;-62
2023/03/25 20:40:55;;;;;;;;;;;;;;;8.99;100.00;100524.91;10459698;28;19925;-62
2023/03/25 20:45:58;;;;;;;;;;;;;;;8.92;100.00;100532.22;10492999;28;19978;-62
2023/03/25 20:51:04;;;;;;;;;;;;;;;8.72;100.00;100525.50;10458713;28;19925;-62
2023/03/25 20:56:07;;;;;;;;;;;;;;;8.71;100.00;100542.09;10458102;28;19928;-62
2023/03/25 21:01:09;;;;;;;;;;;;;;;8.56;100.00;100540.31;10458383;28;19933;-62
2023/03/25 21:06:13;;;;;;;;;;;;;;;8.54;100.00;100542.16;10457802;28;19925;-62
2023/03/25 21:11:22;;;;;;;;;;;;;;;8.46;100.00;100532.13;10458714;28;19924;-62
2023/03/25 21:16:24;;;;;;;;;;;;;;;8.52;100.00;100555.28;10488258;28;19925;-62
2023/03/25 21:21:27;;;;;;;;;;;;;;;8.68;100.00;100560.50;10457599;28;20300;-62
2023/03/25 21:26:29;;;;;;;;;;;;;;;8.59;100.00;100555.81;10457144;28;20367;-62
2023/03/25 21:31:32;;;;;;;;;;;;;;;8.66;100.00;100569.38;10454820;28;19928;-62
2023/03/25 21:36:34;;;;;;;;;;;;;;;8.63;100.00;100572.13;10458213;28;19925;-63
2023/03/25 21:41:36;;;;;;;;;;;;;;;8.53;100.00;100570.00;10460122;28;20105;-62
2023/03/25 21:46:39;;;;;;;;;;;;;;;8.38;100.00;100573.38;10456819;28;19951;-63
2023/03/25 21:51:43;;;;;;;;;;;;;;;8.40;100.00;100568.09;10456762;28;19932;-62
2023/03/25 21:56:50;;;;;;;;;;;;;;;8.37;100.00;100577.75;10456679;28;20290;-62
2023/03/25 22:01:53;;;;;;;;;;;;;;;8.49;100.00;100588.50;10456111;28;20375;-62
2023/03/25 22:06:55;;;;;;;;;;;;;;;8.37;100.00;100582.13;10457127;28;19924;-62
2023/03/25 22:11:57;;;;;;;;;;;;;;;8.27;100.00;100592.19;10456022;28;19932;-63
2023/03/25 22:17:00;;;;;;;;;;;;;;;8.24;100.00;100609.75;10454455;28;19932;-62
2023/03/25 22:22:02;;;;;;;;;;;;;;;8.44;100.00;100609.63;10458867;28;19925;-62
2023/03/25 22:27:04;;;;;;;;;;;;;;;8.37;100.00;100611.69;10454960;28;20376;-62
2023/03/25 22:32:07;;;;;;;;;;;;;;;8.36;100.00;100614.34;10470537;22;19972;-67
2023/03/25 22:37:09;;;;;;;;;;;;;;;8.11;100.00;100619.97;10456018;28;19971;-67
2023/03/25 22:42:11;;;;;;;;;;;;;;;8.37;100.00;100610.81;10455844;28;19925;-67
2023/03/25 22:47:13;;;;;;;;;;;;;;;8.26;100.00;100627.03;10456411;28;19928;-67
2023/03/25 22:52:15;;;;;;;;;;;;;;;8.03;100.00;100622.94;10455746;28;19929;-67
2023/03/25 22:57:17;;;;;;;;;;;;;;;8.28;100.00;100624.34;10456087;28;19975;-67
2023/03/25 23:02:20;;;;;;;;;;;;;;;8.17;100.00;100640.53;10463645;28;19925;-67
2023/03/25 23:07:22;;;;;;;;;;;;;;;8.32;100.00;100628.47;10462989;28;19935;-67
2023/03/25 23:12:26;;;;;;;;;;;;;;;8.46;100.00;100643.47;10462701;28;20376;-67
2023/03/25 23:17:28;;;;;;;;;;;;;;;8.64;100.00;100645.13;10445584;28;19932;-67
2023/03/25 23:22:30;;;;;;;;;;;;;;;8.52;100.00;100633.56;10462058;28;20264;-67
2023/03/25 23:27:32;;;;;;;;;;;;;;;8.48;100.00;100629.41;10462138;28;20295;-67
2023/03/25 23:32:35;;;;;;;;;;;;;;;8.44;100.00;100621.81;10461738;28;19925;-67
2023/03/25 23:37:40;;;;;;;;;;;;;;;8.22;100.00;100627.25;10461509;28;19925;-67
2023/03/25 23:42:42;;;;;;;;;;;;;;;8.49;100.00;100627.63;10461366;28;20474;-67
2023/03/25 23:47:44;;;;;;;;;;;;;;;8.45;100.00;100626.94;10460770;28;20449;-67
2023/03/25 23:52:47;;;;;;;;;;;;;;;8.33;100.00;100635.38;10460104;28;20279;-67
2023/03/25 23:57:49;;;;;;;;;;;;;;;8.38;100.00;100644.66;10461614;28;19970;-66
